sensor_id;sensor_type;location;lat;lon;timestamp;temperature;humidity
68867;SHT30;56451;44.804;20.476;2024-03-02T00:02:44;12.64;63.60
68867;SHT30;56451;44.804;20.476;2024-03-02T00:05:26;12.51;64.03
68867;SHT30;56451;44.804;20.476;2024-03-02T00:08:13;12.51;64.01
68867;SHT30;56451;44.804;20.476;2024-03-02T00:11:00;12.53;64.07
68867;SHT30;56451;44.804;20.476;2024-03-02T00:13:29;12.58;63.87
68867;SHT30;56451;44.804;20.476;2024-03-02T00:16:15;12.61;63.84
68867;SHT30;56451;44.804;20.476;2024-03-02T00:19:02;12.60;63.84
68867;SHT30;56451;44.804;20.476;2024-03-02T00:21:49;12.54;64.05
68867;SHT30;56451;44.804;20.476;2024-03-02T00:24:35;12.57;63.88
68867;SHT30;56451;44.804;20.476;2024-03-02T00:27:21;12.53;64.05
68867;SHT30;56451;44.804;20.476;2024-03-02T00:33:22;12.46;64.20
68867;SHT30;56451;44.804;20.476;2024-03-02T00:36:10;12.46;64.28
68867;SHT30;56451;44.804;20.476;2024-03-02T00:38:48;12.50;64.24
68867;SHT30;56451;44.804;20.476;2024-03-02T00:41:31;12.50;64.20
68867;SHT30;56451;44.804;20.476;2024-03-02T00:44:02;12.53;64.15
68867;SHT30;56451;44.804;20.476;2024-03-02T00:46:52;12.49;64.24
68867;SHT30;56451;44.804;20.476;2024-03-02T00:49:38;12.51;64.15
68867;SHT30;56451;44.804;20.476;2024-03-02T00:52:25;12.51;64.16
68867;SHT30;56451;44.804;20.476;2024-03-02T00:55:12;12.49;64.32
68867;SHT30;56451;44.804;20.476;2024-03-02T00:57:58;12.49;64.46
68867;SHT30;56451;44.804;20.476;2024-03-02T01:00:44;12.50;64.42
68867;SHT30;56451;44.804;20.476;2024-03-02T01:03:12;12.51;64.49
68867;SHT30;56451;44.804;20.476;2024-03-02T01:05:44;12.51;64.50
68867;SHT30;56451;44.804;20.476;2024-03-02T01:08:31;12.54;64.44
68867;SHT30;56451;44.804;20.476;2024-03-02T01:11:17;12.50;64.49
68867;SHT30;56451;44.804;20.476;2024-03-02T01:14:04;12.47;64.63
68867;SHT30;56451;44.804;20.476;2024-03-02T01:16:50;12.51;64.64
68867;SHT30;56451;44.804;20.476;2024-03-02T01:19:37;12.49;64.64
68867;SHT30;56451;44.804;20.476;2024-03-02T01:22:23;12.50;64.73
68867;SHT30;56451;44.804;20.476;2024-03-02T01:25:09;12.53;64.62
68867;SHT30;56451;44.804;20.476;2024-03-02T01:27:55;12.53;64.64
68867;SHT30;56451;44.804;20.476;2024-03-02T01:30:42;12.47;64.84
68867;SHT30;56451;44.804;20.476;2024-03-02T01:33:28;12.46;64.99
68867;SHT30;56451;44.804;20.476;2024-03-02T01:35:54;12.37;65.24
68867;SHT30;56451;44.804;20.476;2024-03-02T01:38:21;12.41;65.05
68867;SHT30;56451;44.804;20.476;2024-03-02T01:40:47;12.44;64.95
68867;SHT30;56451;44.804;20.476;2024-03-02T01:43:18;12.43;65.00
68867;SHT30;56451;44.804;20.476;2024-03-02T01:46:04;12.37;65.21
68867;SHT30;56451;44.804;20.476;2024-03-02T01:48:30;12.32;65.28
68867;SHT30;56451;44.804;20.476;2024-03-02T01:51:17;12.32;65.33
68867;SHT30;56451;44.804;20.476;2024-03-02T01:54:03;12.39;65.17
68867;SHT30;56451;44.804;20.476;2024-03-02T01:56:49;12.36;65.19
68867;SHT30;56451;44.804;20.476;2024-03-02T01:59:35;12.41;65.06
68867;SHT30;56451;44.804;20.476;2024-03-02T02:02:23;12.47;64.82
68867;SHT30;56451;44.804;20.476;2024-03-02T02:05:09;12.43;64.84
68867;SHT30;56451;44.804;20.476;2024-03-02T02:07:56;12.32;65.34
68867;SHT30;56451;44.804;20.476;2024-03-02T02:10:42;12.30;65.38
68867;SHT30;56451;44.804;20.476;2024-03-02T02:13:09;12.25;65.63
68867;SHT30;56451;44.804;20.476;2024-03-02T02:15:55;12.25;65.71
68867;SHT30;56451;44.804;20.476;2024-03-02T02:18:42;12.25;65.70
68867;SHT30;56451;44.804;20.476;2024-03-02T02:21:47;12.30;65.56
68867;SHT30;56451;44.804;20.476;2024-03-02T02:24:34;12.32;65.56
68867;SHT30;56451;44.804;20.476;2024-03-02T02:27:20;12.34;65.67
68867;SHT30;56451;44.804;20.476;2024-03-02T02:30:10;12.34;65.66
68867;SHT30;56451;44.804;20.476;2024-03-02T02:32:57;12.43;65.47
68867;SHT30;56451;44.804;20.476;2024-03-02T02:35:43;12.46;65.47
68867;SHT30;56451;44.804;20.476;2024-03-02T02:38:09;12.44;65.56
68867;SHT30;56451;44.804;20.476;2024-03-02T02:40:38;12.37;65.75
68867;SHT30;56451;44.804;20.476;2024-03-02T02:43:24;12.34;65.89
68867;SHT30;56451;44.804;20.476;2024-03-02T02:46:10;12.39;65.86
68867;SHT30;56451;44.804;20.476;2024-03-02T02:48:37;12.46;65.57
68867;SHT30;56451;44.804;20.476;2024-03-02T02:51:23;12.44;65.57
68867;SHT30;56451;44.804;20.476;2024-03-02T02:54:14;12.43;65.67
68867;SHT30;56451;44.804;20.476;2024-03-02T02:57:00;12.37;65.83
68867;SHT30;56451;44.804;20.476;2024-03-02T02:59:46;12.39;65.73
68867;SHT30;56451;44.804;20.476;2024-03-02T03:02:32;12.30;66.19
68867;SHT30;56451;44.804;20.476;2024-03-02T03:05:19;12.20;66.41
68867;SHT30;56451;44.804;20.476;2024-03-02T03:08:05;12.23;66.53
68867;SHT30;56451;44.804;20.476;2024-03-02T03:10:32;12.26;66.49
68867;SHT30;56451;44.804;20.476;2024-03-02T03:13:18;12.29;66.45
68867;SHT30;56451;44.804;20.476;2024-03-02T03:16:05;12.33;66.34
68867;SHT30;56451;44.804;20.476;2024-03-02T03:18:51;12.39;66.18
68867;SHT30;56451;44.804;20.476;2024-03-02T03:21:37;12.28;66.61
68867;SHT30;56451;44.804;20.476;2024-03-02T03:24:23;12.29;66.74
68867;SHT30;56451;44.804;20.476;2024-03-02T03:27:10;12.25;66.99
68867;SHT30;56451;44.804;20.476;2024-03-02T03:29:59;12.28;67.12
68867;SHT30;56451;44.804;20.476;2024-03-02T03:32:45;12.33;67.10
68867;SHT30;56451;44.804;20.476;2024-03-02T03:35:32;12.36;67.26
68867;SHT30;56451;44.804;20.476;2024-03-02T03:38:18;12.34;67.55
68867;SHT30;56451;44.804;20.476;2024-03-02T03:41:05;12.26;67.75
68867;SHT30;56451;44.804;20.476;2024-03-02T03:43:32;12.26;67.95
68867;SHT30;56451;44.804;20.476;2024-03-02T03:46:17;12.37;67.64
68867;SHT30;56451;44.804;20.476;2024-03-02T03:49:04;12.30;67.84
68867;SHT30;56451;44.804;20.476;2024-03-02T03:51:52;12.32;68.00
68867;SHT30;56451;44.804;20.476;2024-03-02T03:54:38;12.34;68.14
68867;SHT30;56451;44.804;20.476;2024-03-02T03:57:24;12.26;68.40
68867;SHT30;56451;44.804;20.476;2024-03-02T04:00:11;12.20;68.76
68867;SHT30;56451;44.804;20.476;2024-03-02T04:02:57;12.10;69.02
68867;SHT30;56451;44.804;20.476;2024-03-02T04:05:43;12.06;69.32
68867;SHT30;56451;44.804;20.476;2024-03-02T04:08:11;12.10;69.22
68867;SHT30;56451;44.804;20.476;2024-03-02T04:10:58;12.16;69.26
68867;SHT30;56451;44.804;20.476;2024-03-02T04:13:24;12.15;69.31
68867;SHT30;56451;44.804;20.476;2024-03-02T04:15:50;12.15;69.44
68867;SHT30;56451;44.804;20.476;2024-03-02T04:18:36;12.19;69.42
68867;SHT30;56451;44.804;20.476;2024-03-02T04:21:22;12.19;69.43
68867;SHT30;56451;44.804;20.476;2024-03-02T04:24:09;12.16;69.74
68867;SHT30;56451;44.804;20.476;2024-03-02T04:26:55;12.13;69.95
68867;SHT30;56451;44.804;20.476;2024-03-02T04:29:41;12.19;69.94
68867;SHT30;56451;44.804;20.476;2024-03-02T04:32:27;12.22;69.77
68867;SHT30;56451;44.804;20.476;2024-03-02T04:35:09;12.25;69.62
68867;SHT30;56451;44.804;20.476;2024-03-02T04:37:55;12.20;69.69
68867;SHT30;56451;44.804;20.476;2024-03-02T04:40:42;12.23;69.67
68867;SHT30;56451;44.804;20.476;2024-03-02T04:43:28;12.18;69.89
68867;SHT30;56451;44.804;20.476;2024-03-02T04:46:16;12.18;69.93
68867;SHT30;56451;44.804;20.476;2024-03-02T04:49:02;12.13;70.03
68867;SHT30;56451;44.804;20.476;2024-03-02T04:51:48;12.08;70.16
68867;SHT30;56451;44.804;20.476;2024-03-02T04:54:34;12.02;70.49
68867;SHT30;56451;44.804;20.476;2024-03-02T04:57:20;11.95;70.68
68867;SHT30;56451;44.804;20.476;2024-03-02T05:00:07;11.95;70.69
68867;SHT30;56451;44.804;20.476;2024-03-02T05:02:53;11.95;70.73
68867;SHT30;56451;44.804;20.476;2024-03-02T05:05:40;11.92;70.66
68867;SHT30;56451;44.804;20.476;2024-03-02T05:08:06;11.91;70.69
68867;SHT30;56451;44.804;20.476;2024-03-02T05:10:52;11.95;70.35
68867;SHT30;56451;44.804;20.476;2024-03-02T05:13:38;11.92;70.40
68867;SHT30;56451;44.804;20.476;2024-03-02T05:16:24;11.86;70.45
68867;SHT30;56451;44.804;20.476;2024-03-02T05:19:10;11.86;70.30
68867;SHT30;56451;44.804;20.476;2024-03-02T05:21:56;11.89;70.12
68867;SHT30;56451;44.804;20.476;2024-03-02T05:24:45;11.82;70.19
68867;SHT30;56451;44.804;20.476;2024-03-02T05:27:31;11.85;70.13
68867;SHT30;56451;44.804;20.476;2024-03-02T05:30:17;11.75;70.18
68867;SHT30;56451;44.804;20.476;2024-03-02T05:33:03;11.71;70.43
68867;SHT30;56451;44.804;20.476;2024-03-02T05:35:50;11.65;70.40
68867;SHT30;56451;44.804;20.476;2024-03-02T05:38:37;11.74;70.25
68867;SHT30;56451;44.804;20.476;2024-03-02T05:41:23;11.65;70.34
68867;SHT30;56451;44.804;20.476;2024-03-02T05:44:09;11.67;70.32
68867;SHT30;56451;44.804;20.476;2024-03-02T05:46:56;11.67;70.25
68867;SHT30;56451;44.804;20.476;2024-03-02T05:49:42;11.68;70.18
68867;SHT30;56451;44.804;20.476;2024-03-02T05:52:30;11.64;70.22
68867;SHT30;56451;44.804;20.476;2024-03-02T05:55:16;11.62;70.10
68867;SHT30;56451;44.804;20.476;2024-03-02T05:58:03;11.54;70.34
68867;SHT30;56451;44.804;20.476;2024-03-02T06:00:33;11.55;70.44
68867;SHT30;56451;44.804;20.476;2024-03-02T06:03:22;11.61;70.27
68867;SHT30;56451;44.804;20.476;2024-03-02T06:05:55;11.65;70.15
68867;SHT30;56451;44.804;20.476;2024-03-02T06:08:41;11.71;69.90
68867;SHT30;56451;44.804;20.476;2024-03-02T06:11:28;11.67;69.89
68867;SHT30;56451;44.804;20.476;2024-03-02T06:14:15;11.67;69.81
68867;SHT30;56451;44.804;20.476;2024-03-02T06:17:05;11.65;69.81
68867;SHT30;56451;44.804;20.476;2024-03-02T06:19:53;11.58;69.92
68867;SHT30;56451;44.804;20.476;2024-03-02T06:22:42;11.62;69.68
68867;SHT30;56451;44.804;20.476;2024-03-02T06:25:28;11.65;69.61
68867;SHT30;56451;44.804;20.476;2024-03-02T06:28:27;11.72;69.15
68867;SHT30;56451;44.804;20.476;2024-03-02T06:31:14;11.77;68.93
68867;SHT30;56451;44.804;20.476;2024-03-02T06:33:41;11.68;68.92
68867;SHT30;56451;44.804;20.476;2024-03-02T06:36:07;11.60;69.16
68867;SHT30;56451;44.804;20.476;2024-03-02T06:39:00;11.57;69.33
68867;SHT30;56451;44.804;20.476;2024-03-02T06:41:46;11.60;69.22
68867;SHT30;56451;44.804;20.476;2024-03-02T06:44:34;11.62;69.16
68867;SHT30;56451;44.804;20.476;2024-03-02T06:47:23;11.65;69.11
68867;SHT30;56451;44.804;20.476;2024-03-02T06:50:09;11.78;68.60
68867;SHT30;56451;44.804;20.476;2024-03-02T06:52:55;11.81;68.35
68867;SHT30;56451;44.804;20.476;2024-03-02T06:55:42;11.82;68.30
68867;SHT30;56451;44.804;20.476;2024-03-02T06:58:31;11.98;67.62
68867;SHT30;56451;44.804;20.476;2024-03-02T07:01:18;12.02;67.36
68867;SHT30;56451;44.804;20.476;2024-03-02T07:04:05;11.98;67.51
68867;SHT30;56451;44.804;20.476;2024-03-02T07:06:52;11.99;67.43
68867;SHT30;56451;44.804;20.476;2024-03-02T07:09:40;12.02;67.22
68867;SHT30;56451;44.804;20.476;2024-03-02T07:12:26;12.06;67.05
68867;SHT30;56451;44.804;20.476;2024-03-02T07:15:14;12.13;67.05
68867;SHT30;56451;44.804;20.476;2024-03-02T07:17:59;12.19;66.67
68867;SHT30;56451;44.804;20.476;2024-03-02T07:20:46;12.22;66.69
68867;SHT30;56451;44.804;20.476;2024-03-02T07:23:35;12.19;66.75
68867;SHT30;56451;44.804;20.476;2024-03-02T07:26:02;12.23;66.60
68867;SHT30;56451;44.804;20.476;2024-03-02T07:28:51;12.36;66.27
68867;SHT30;56451;44.804;20.476;2024-03-02T07:31:38;12.39;65.92
68867;SHT30;56451;44.804;20.476;2024-03-02T07:34:24;12.47;65.78
68867;SHT30;56451;44.804;20.476;2024-03-02T07:36:50;12.44;65.84
68867;SHT30;56451;44.804;20.476;2024-03-02T07:39:36;12.43;65.87
68867;SHT30;56451;44.804;20.476;2024-03-02T07:42:22;12.51;65.72
68867;SHT30;56451;44.804;20.476;2024-03-02T07:45:09;12.56;65.60
68867;SHT30;56451;44.804;20.476;2024-03-02T07:47:55;12.63;65.49
68867;SHT30;56451;44.804;20.476;2024-03-02T07:50:41;12.70;65.19
68867;SHT30;56451;44.804;20.476;2024-03-02T07:53:27;12.74;64.99
68867;SHT30;56451;44.804;20.476;2024-03-02T07:56:14;12.81;64.72
68867;SHT30;56451;44.804;20.476;2024-03-02T07:59:02;12.91;64.59
68867;SHT30;56451;44.804;20.476;2024-03-02T08:01:48;13.01;64.28
68867;SHT30;56451;44.804;20.476;2024-03-02T08:04:35;13.09;63.89
68867;SHT30;56451;44.804;20.476;2024-03-02T08:07:21;13.14;63.64
68867;SHT30;56451;44.804;20.476;2024-03-02T08:10:05;13.15;63.41
68867;SHT30;56451;44.804;20.476;2024-03-02T08:12:52;13.14;63.51
68867;SHT30;56451;44.804;20.476;2024-03-02T08:15:38;13.23;63.19
68867;SHT30;56451;44.804;20.476;2024-03-02T08:18:25;13.27;63.07
68867;SHT30;56451;44.804;20.476;2024-03-02T08:21:11;13.35;62.86
68867;SHT30;56451;44.804;20.476;2024-03-02T08:23:57;13.40;62.50
68867;SHT30;56451;44.804;20.476;2024-03-02T08:26:43;13.45;62.51
68867;SHT30;56451;44.804;20.476;2024-03-02T08:29:29;13.47;62.47
68867;SHT30;56451;44.804;20.476;2024-03-02T08:32:15;13.60;62.23
68867;SHT30;56451;44.804;20.476;2024-03-02T08:35:02;13.67;61.75
68867;SHT30;56451;44.804;20.476;2024-03-02T08:37:41;13.66;61.69
68867;SHT30;56451;44.804;20.476;2024-03-02T08:40:27;13.77;61.55
68867;SHT30;56451;44.804;20.476;2024-03-02T08:43:13;13.80;61.52
68867;SHT30;56451;44.804;20.476;2024-03-02T08:45:59;13.84;61.14
68867;SHT30;56451;44.804;20.476;2024-03-02T08:48:46;13.87;61.24
68867;SHT30;56451;44.804;20.476;2024-03-02T08:51:32;13.91;60.91
68867;SHT30;56451;44.804;20.476;2024-03-02T08:54:18;14.01;60.61
68867;SHT30;56451;44.804;20.476;2024-03-02T08:57:05;14.00;60.68
68867;SHT30;56451;44.804;20.476;2024-03-02T08:59:52;14.07;60.62
68867;SHT30;56451;44.804;20.476;2024-03-02T09:02:38;14.04;60.54
68867;SHT30;56451;44.804;20.476;2024-03-02T09:05:24;14.08;60.57
68867;SHT30;56451;44.804;20.476;2024-03-02T09:08:11;14.15;60.37
68867;SHT30;56451;44.804;20.476;2024-03-02T09:10:37;14.14;60.45
68867;SHT30;56451;44.804;20.476;2024-03-02T09:13:23;14.17;60.37
68867;SHT30;56451;44.804;20.476;2024-03-02T09:16:09;14.08;60.49
68867;SHT30;56451;44.804;20.476;2024-03-02T09:18:55;14.12;60.58
68867;SHT30;56451;44.804;20.476;2024-03-02T09:21:42;14.17;60.52
68867;SHT30;56451;44.804;20.476;2024-03-02T09:24:28;14.22;60.34
68867;SHT30;56451;44.804;20.476;2024-03-02T09:27:14;14.12;60.73
68867;SHT30;56451;44.804;20.476;2024-03-02T09:30:00;14.18;60.66
68867;SHT30;56451;44.804;20.476;2024-03-02T09:32:48;14.24;60.42
68867;SHT30;56451;44.804;20.476;2024-03-02T09:35:35;14.29;60.61
68867;SHT30;56451;44.804;20.476;2024-03-02T09:38:21;14.42;60.34
68867;SHT30;56451;44.804;20.476;2024-03-02T09:40:49;14.59;59.80
68867;SHT30;56451;44.804;20.476;2024-03-02T09:43:35;14.66;59.50
68867;SHT30;56451;44.804;20.476;2024-03-02T09:46:21;14.69;59.28
68867;SHT30;56451;44.804;20.476;2024-03-02T09:48:47;14.76;59.14
68867;SHT30;56451;44.804;20.476;2024-03-02T09:51:33;14.79;59.18
68867;SHT30;56451;44.804;20.476;2024-03-02T09:54:00;14.84;59.19
68867;SHT30;56451;44.804;20.476;2024-03-02T09:56:26;14.93;58.98
68867;SHT30;56451;44.804;20.476;2024-03-02T09:59:12;15.06;58.72
68867;SHT30;56451;44.804;20.476;2024-03-02T10:02:00;15.12;58.19
68867;SHT30;56451;44.804;20.476;2024-03-02T10:04:49;15.14;58.15
68867;SHT30;56451;44.804;20.476;2024-03-02T10:07:35;15.18;58.18
68867;SHT30;56451;44.804;20.476;2024-03-02T10:10:21;15.23;57.74
68867;SHT30;56451;44.804;20.476;2024-03-02T10:12:47;15.26;57.78
68867;SHT30;56451;44.804;20.476;2024-03-02T10:15:13;15.28;57.85
68867;SHT30;56451;44.804;20.476;2024-03-02T10:17:49;15.42;57.56
68867;SHT30;56451;44.804;20.476;2024-03-02T10:20:22;15.51;57.34
68867;SHT30;56451;44.804;20.476;2024-03-02T10:22:52;15.54;57.51
68867;SHT30;56451;44.804;20.476;2024-03-02T10:25:38;15.58;57.25
68867;SHT30;56451;44.804;20.476;2024-03-02T10:28:24;15.78;56.77
68867;SHT30;56451;44.804;20.476;2024-03-02T10:31:10;15.93;56.41
68867;SHT30;56451;44.804;20.476;2024-03-02T10:33:37;16.09;56.35
68867;SHT30;56451;44.804;20.476;2024-03-02T10:36:04;16.18;55.75
68867;SHT30;56451;44.804;20.476;2024-03-02T10:38:50;16.27;55.44
68867;SHT30;56451;44.804;20.476;2024-03-02T10:41:18;16.28;55.46
68867;SHT30;56451;44.804;20.476;2024-03-02T10:44:07;16.40;54.99
68867;SHT30;56451;44.804;20.476;2024-03-02T10:46:55;16.50;54.88
68867;SHT30;56451;44.804;20.476;2024-03-02T10:49:46;16.57;54.37
68867;SHT30;56451;44.804;20.476;2024-03-02T10:52:35;16.53;54.25
68867;SHT30;56451;44.804;20.476;2024-03-02T10:55:22;16.50;54.16
68867;SHT30;56451;44.804;20.476;2024-03-02T10:58:12;16.58;54.07
68867;SHT30;56451;44.804;20.476;2024-03-02T11:00:39;16.58;53.79
68867;SHT30;56451;44.804;20.476;2024-03-02T11:03:27;16.68;54.08
68867;SHT30;56451;44.804;20.476;2024-03-02T11:06:14;16.74;53.66
68867;SHT30;56451;44.804;20.476;2024-03-02T11:09:07;16.84;53.45
68867;SHT30;56451;44.804;20.476;2024-03-02T11:12:12;16.82;53.62
68867;SHT30;56451;44.804;20.476;2024-03-02T11:15:00;16.78;53.33
68867;SHT30;56451;44.804;20.476;2024-03-02T11:17:47;16.84;53.27
68867;SHT30;56451;44.804;20.476;2024-03-02T11:20:15;16.91;53.13
68867;SHT30;56451;44.804;20.476;2024-03-02T11:23:06;16.98;52.90
68867;SHT30;56451;44.804;20.476;2024-03-02T11:25:52;17.05;52.79
68867;SHT30;56451;44.804;20.476;2024-03-02T11:28:38;17.08;52.82
68867;SHT30;56451;44.804;20.476;2024-03-02T11:32:44;17.23;52.57
68867;SHT30;56451;44.804;20.476;2024-03-02T11:35:02;17.23;52.38
68867;SHT30;56451;44.804;20.476;2024-03-02T11:37:49;17.26;52.22
68867;SHT30;56451;44.804;20.476;2024-03-02T11:40:35;17.30;52.12
68867;SHT30;56451;44.804;20.476;2024-03-02T11:43:01;17.40;52.04
68867;SHT30;56451;44.804;20.476;2024-03-02T11:45:28;17.47;51.89
68867;SHT30;56451;44.804;20.476;2024-03-02T11:48:15;17.42;51.67
68867;SHT30;56451;44.804;20.476;2024-03-02T11:50:46;17.40;51.93
68867;SHT30;56451;44.804;20.476;2024-03-02T11:53:33;17.39;51.99
68867;SHT30;56451;44.804;20.476;2024-03-02T11:56:25;17.37;51.92
68867;SHT30;56451;44.804;20.476;2024-03-02T11:59:12;17.49;51.76
68867;SHT30;56451;44.804;20.476;2024-03-02T12:01:59;17.54;51.58
68867;SHT30;56451;44.804;20.476;2024-03-02T12:04:26;17.50;51.48
68867;SHT30;56451;44.804;20.476;2024-03-02T12:07:12;17.43;51.66
68867;SHT30;56451;44.804;20.476;2024-03-02T12:09:41;17.37;51.67
68867;SHT30;56451;44.804;20.476;2024-03-02T12:12:29;17.40;51.86
68867;SHT30;56451;44.804;20.476;2024-03-02T12:14:55;17.54;51.66
68867;SHT30;56451;44.804;20.476;2024-03-02T12:17:22;17.59;51.44
68867;SHT30;56451;44.804;20.476;2024-03-02T12:19:48;17.71;51.35
68867;SHT30;56451;44.804;20.476;2024-03-02T12:22:16;17.80;50.99
68867;SHT30;56451;44.804;20.476;2024-03-02T12:24:44;17.90;50.70
68867;SHT30;56451;44.804;20.476;2024-03-02T12:27:15;17.90;50.74
68867;SHT30;56451;44.804;20.476;2024-03-02T12:29:43;17.94;50.77
68867;SHT30;56451;44.804;20.476;2024-03-02T12:32:29;18.01;50.75
68867;SHT30;56451;44.804;20.476;2024-03-02T12:34:56;18.12;50.37
68867;SHT30;56451;44.804;20.476;2024-03-02T12:37:43;18.19;50.50
68867;SHT30;56451;44.804;20.476;2024-03-02T12:40:31;18.25;50.73
68867;SHT30;56451;44.804;20.476;2024-03-02T12:42:57;18.33;50.52
68867;SHT30;56451;44.804;20.476;2024-03-02T12:45:49;18.42;50.07
68867;SHT30;56451;44.804;20.476;2024-03-02T12:48:36;18.55;49.90
68867;SHT30;56451;44.804;20.476;2024-03-02T12:51:02;18.61;49.87
68867;SHT30;56451;44.804;20.476;2024-03-02T12:53:29;18.67;49.56
68867;SHT30;56451;44.804;20.476;2024-03-02T12:55:56;18.67;49.66
68867;SHT30;56451;44.804;20.476;2024-03-02T12:58:23;18.67;49.18
68867;SHT30;56451;44.804;20.476;2024-03-02T13:01:09;18.74;49.17
68867;SHT30;56451;44.804;20.476;2024-03-02T13:03:43;18.74;49.34
68867;SHT30;56451;44.804;20.476;2024-03-02T13:06:32;18.73;49.10
68867;SHT30;56451;44.804;20.476;2024-03-02T13:09:20;18.70;48.85
68867;SHT30;56451;44.804;20.476;2024-03-02T13:11:46;18.76;48.89
68867;SHT30;56451;44.804;20.476;2024-03-02T13:14:13;18.77;48.86
68867;SHT30;56451;44.804;20.476;2024-03-02T13:16:59;18.63;48.96
68867;SHT30;56451;44.804;20.476;2024-03-02T13:20:02;18.63;48.94
68867;SHT30;56451;44.804;20.476;2024-03-02T13:22:49;18.69;48.71
68867;SHT30;56451;44.804;20.476;2024-03-02T13:25:35;18.66;48.77
68867;SHT30;56451;44.804;20.476;2024-03-02T13:28:21;18.70;48.59
68867;SHT30;56451;44.804;20.476;2024-03-02T13:31:10;18.73;48.42
68867;SHT30;56451;44.804;20.476;2024-03-02T13:33:56;18.76;48.28
68867;SHT30;56451;44.804;20.476;2024-03-02T13:36:26;18.80;48.45
68867;SHT30;56451;44.804;20.476;2024-03-02T13:38:52;18.87;48.25
68867;SHT30;56451;44.804;20.476;2024-03-02T13:41:42;18.90;48.28
68867;SHT30;56451;44.804;20.476;2024-03-02T13:44:31;19.01;47.94
68867;SHT30;56451;44.804;20.476;2024-03-02T13:47:17;19.01;47.86
68867;SHT30;56451;44.804;20.476;2024-03-02T13:49:45;18.94;47.84
68867;SHT30;56451;44.804;20.476;2024-03-02T13:52:12;19.01;47.85
68867;SHT30;56451;44.804;20.476;2024-03-02T13:54:43;19.04;47.72
68867;SHT30;56451;44.804;20.476;2024-03-02T13:57:30;19.17;47.40
68867;SHT30;56451;44.804;20.476;2024-03-02T14:00:17;19.12;47.28
68867;SHT30;56451;44.804;20.476;2024-03-02T14:03:08;19.19;47.23
68867;SHT30;56451;44.804;20.476;2024-03-02T14:05:56;19.07;47.32
68867;SHT30;56451;44.804;20.476;2024-03-02T14:08:42;19.07;47.46
68867;SHT30;56451;44.804;20.476;2024-03-02T14:11:12;19.11;47.35
68867;SHT30;56451;44.804;20.476;2024-03-02T14:13:43;19.01;47.24
68867;SHT30;56451;44.804;20.476;2024-03-02T14:16:19;18.90;47.53
68867;SHT30;56451;44.804;20.476;2024-03-02T14:19:06;18.94;47.45
68867;SHT30;56451;44.804;20.476;2024-03-02T14:21:52;18.97;47.43
68867;SHT30;56451;44.804;20.476;2024-03-02T14:24:38;19.11;47.17
68867;SHT30;56451;44.804;20.476;2024-03-02T14:27:24;19.08;47.18
68867;SHT30;56451;44.804;20.476;2024-03-02T14:30:10;19.10;47.03
68867;SHT30;56451;44.804;20.476;2024-03-02T14:32:57;19.11;47.07
68867;SHT30;56451;44.804;20.476;2024-03-02T14:35:45;19.17;46.98
68867;SHT30;56451;44.804;20.476;2024-03-02T14:38:31;19.22;46.87
68867;SHT30;56451;44.804;20.476;2024-03-02T14:41:17;19.18;46.66
68867;SHT30;56451;44.804;20.476;2024-03-02T14:44:03;19.18;46.80
68867;SHT30;56451;44.804;20.476;2024-03-02T14:46:50;19.28;46.52
68867;SHT30;56451;44.804;20.476;2024-03-02T14:49:18;19.17;46.51
68867;SHT30;56451;44.804;20.476;2024-03-02T14:52:05;19.25;46.35
68867;SHT30;56451;44.804;20.476;2024-03-02T14:54:51;19.27;46.46
68867;SHT30;56451;44.804;20.476;2024-03-02T14:57:37;19.22;46.39
68867;SHT30;56451;44.804;20.476;2024-03-02T15:00:23;19.18;46.43
68867;SHT30;56451;44.804;20.476;2024-03-02T15:03:09;19.19;46.24
68867;SHT30;56451;44.804;20.476;2024-03-02T15:05:38;19.12;46.45
68867;SHT30;56451;44.804;20.476;2024-03-02T15:08:24;19.15;46.35
68867;SHT30;56451;44.804;20.476;2024-03-02T15:11:11;19.14;46.48
68867;SHT30;56451;44.804;20.476;2024-03-02T15:13:57;19.15;46.54
68867;SHT30;56451;44.804;20.476;2024-03-02T15:16:42;19.21;46.27
68867;SHT30;56451;44.804;20.476;2024-03-02T15:19:28;19.17;46.27
68867;SHT30;56451;44.804;20.476;2024-03-02T15:22:15;19.18;46.23
68867;SHT30;56451;44.804;20.476;2024-03-02T15:25:02;19.21;46.12
68867;SHT30;56451;44.804;20.476;2024-03-02T15:27:47;19.14;46.43
68867;SHT30;56451;44.804;20.476;2024-03-02T15:30:33;19.10;46.36
68867;SHT30;56451;44.804;20.476;2024-03-02T15:33:00;19.06;46.37
68867;SHT30;56451;44.804;20.476;2024-03-02T15:35:26;19.00;46.42
68867;SHT30;56451;44.804;20.476;2024-03-02T15:38:12;18.96;46.53
68867;SHT30;56451;44.804;20.476;2024-03-02T15:40:40;18.93;46.42
68867;SHT30;56451;44.804;20.476;2024-03-02T15:43:27;18.86;46.53
68867;SHT30;56451;44.804;20.476;2024-03-02T15:45:53;18.71;46.80
68867;SHT30;56451;44.804;20.476;2024-03-02T15:48:40;18.64;47.01
68867;SHT30;56451;44.804;20.476;2024-03-02T15:51:27;18.57;47.14
68867;SHT30;56451;44.804;20.476;2024-03-02T15:54:14;18.50;47.25
68867;SHT30;56451;44.804;20.476;2024-03-02T15:57:00;18.50;47.29
68867;SHT30;56451;44.804;20.476;2024-03-02T15:59:47;18.46;47.32
68867;SHT30;56451;44.804;20.476;2024-03-02T16:02:13;18.33;47.55
68867;SHT30;56451;44.804;20.476;2024-03-02T16:04:59;18.29;47.79
68867;SHT30;56451;44.804;20.476;2024-03-02T16:07:45;18.18;47.98
68867;SHT30;56451;44.804;20.476;2024-03-02T16:10:31;18.06;48.04
68867;SHT30;56451;44.804;20.476;2024-03-02T16:13:17;17.90;48.29
68867;SHT30;56451;44.804;20.476;2024-03-02T16:16:05;17.66;48.70
68867;SHT30;56451;44.804;20.476;2024-03-02T16:18:51;17.49;49.18
68867;SHT30;56451;44.804;20.476;2024-03-02T16:21:17;17.32;49.56
68867;SHT30;56451;44.804;20.476;2024-03-02T16:23:46;17.09;50.16
68867;SHT30;56451;44.804;20.476;2024-03-02T16:26:12;16.96;50.34
68867;SHT30;56451;44.804;20.476;2024-03-02T16:28:58;16.79;50.81
68867;SHT30;56451;44.804;20.476;2024-03-02T16:31:26;16.61;51.27
68867;SHT30;56451;44.804;20.476;2024-03-02T16:33:56;16.55;51.47
68867;SHT30;56451;44.804;20.476;2024-03-02T16:36:23;16.47;51.68
68867;SHT30;56451;44.804;20.476;2024-03-02T16:39:09;16.34;52.06
68867;SHT30;56451;44.804;20.476;2024-03-02T16:41:56;16.07;52.45
68867;SHT30;56451;44.804;20.476;2024-03-02T16:44:43;15.95;52.75
68867;SHT30;56451;44.804;20.476;2024-03-02T16:47:09;15.85;53.07
68867;SHT30;56451;44.804;20.476;2024-03-02T16:49:55;15.65;53.40
68867;SHT30;56451;44.804;20.476;2024-03-02T16:52:41;15.57;53.45
68867;SHT30;56451;44.804;20.476;2024-03-02T16:55:28;15.47;53.75